Time;durP1;ratioP1;P1;durP2;ratioP2;P2;SDS_P1;SDS_P2;PMS_P1;PMS_P2;Temp;Humidity;BMP_temperature;BMP_pressure;BME280_temperature;BME280_humidity;BME280_pressure;Samples;Min_cycle;Max_cycle;Signal;HPM_P1;HPM_P2
2023/08/19 00:02:16;;;;;;;36.25;31.88;;;;;;;;;;5005566;28;20022;-70
2023/08/19 00:04:43;;;;;;;39.95;32.42;;;;;;;;;;5004113;28;20092;-70
2023/08/19 00:07:09;;;;;;;39.72;31.90;;;;;;;;;;5003673;28;20022;-70
2023/08/19 00:09:37;;;;;;;35.88;31.98;;;;;;;;;;5002269;28;20019;-70
2023/08/19 00:12:03;;;;;;;40.50;32.28;;;;;;;;;;4986813;28;20061;-70
2023/08/19 00:14:29;;;;;;;36.15;31.42;;;;;;;;;;4991245;28;20023;-70
2023/08/19 00:16:55;;;;;;;36.38;32.45;;;;;;;;;;5002960;28;20026;-70
2023/08/19 00:19:22;;;;;;;36.35;32.10;;;;;;;;;;5005434;28;20029;-70
2023/08/19 00:21:48;;;;;;;37.30;31.67;;;;;;;;;;5001739;28;20030;-69
2023/08/19 00:24:14;;;;;;;40.53;32.20;;;;;;;;;;5000869;28;20438;-69
2023/08/19 00:26:41;;;;;;;43.13;31.63;;;;;;;;;;4987737;28;20113;-71
2023/08/19 00:29:07;;;;;;;35.92;32.03;;;;;;;;;;5005133;28;20092;-71
2023/08/19 00:31:33;;;;;;;36.28;29.98;;;;;;;;;;5002232;28;20037;-69
2023/08/19 00:34:00;;;;;;;41.10;31.70;;;;;;;;;;5003121;28;20030;-73
2023/08/19 00:36:26;;;;;;;33.78;30.00;;;;;;;;;;4989002;28;20030;-70
2023/08/19 00:38:58;;;;;;;38.80;29.83;;;;;;;;;;4987767;28;20047;-71
2023/08/19 00:41:24;;;;;;;34.47;28.75;;;;;;;;;;5001383;28;20066;-70
2023/08/19 00:43:50;;;;;;;32.83;29.20;;;;;;;;;;5001543;28;20033;-70
2023/08/19 00:46:17;;;;;;;45.40;30.35;;;;;;;;;;5004503;28;20065;-70
2023/08/19 00:48:43;;;;;;;32.95;29.15;;;;;;;;;;5002142;28;20030;-70
2023/08/19 00:51:09;;;;;;;40.03;29.35;;;;;;;;;;4985080;28;20136;-70
2023/08/19 00:53:36;;;;;;;32.67;28.90;;;;;;;;;;4997815;28;20092;-70
2023/08/19 00:56:03;;;;;;;32.33;28.83;;;;;;;;;;4986128;28;20030;-70
2023/08/19 00:58:29;;;;;;;32.20;28.58;;;;;;;;;;5001768;28;20049;-70
2023/08/19 01:00:57;;;;;;;31.52;27.85;;;;;;;;;;4986692;28;20065;-70
2023/08/19 01:03:24;;;;;;;30.67;27.10;;;;;;;;;;5001720;28;20034;-70
2023/08/19 01:06:06;;;;;;;33.10;28.02;;;;;;;;;;5001429;28;20533;-70
2023/08/19 01:08:49;;;;;;;31.95;28.08;;;;;;;;;;5002155;28;20032;-70
2023/08/19 01:11:41;;;;;;;32.00;28.48;;;;;;;;;;4998066;28;20026;-69
2023/08/19 01:14:20;;;;;;;32.50;28.77;;;;;;;;;;4991673;28;20050;-70
2023/08/19 01:16:47;;;;;;;32.70;27.75;;;;;;;;;;5002487;28;20034;-71
2023/08/19 01:19:20;;;;;;;32.88;28.95;;;;;;;;;;5003566;28;20038;-70
2023/08/19 01:21:46;;;;;;;34.00;28.73;;;;;;;;;;4999484;28;20430;-70
2023/08/19 01:24:13;;;;;;;32.75;27.67;;;;;;;;;;4998707;28;20111;-70
2023/08/19 01:26:40;;;;;;;30.45;27.27;;;;;;;;;;5002977;28;20030;-71
2023/08/19 01:29:06;;;;;;;29.90;26.67;;;;;;;;;;4987418;28;20454;-70
2023/08/19 01:31:32;;;;;;;29.83;26.58;;;;;;;;;;4991656;28;20033;-71
2023/08/19 01:33:59;;;;;;;34.65;27.95;;;;;;;;;;5001244;28;20137;-70
2023/08/19 01:36:32;;;;;;;36.15;26.85;;;;;;;;;;5003224;28;20555;-71
2023/08/19 01:39:01;;;;;;;31.30;26.50;;;;;;;;;;5004319;28;20112;-71
2023/08/19 01:41:28;;;;;;;30.30;27.00;;;;;;;;;;4998268;28;20054;-71
2023/08/19 01:43:57;;;;;;;29.52;26.30;;;;;;;;;;5007611;28;20065;-70
2023/08/19 01:46:24;;;;;;;29.80;26.60;;;;;;;;;;4963313;28;20444;-70
2023/08/19 01:48:50;;;;;;;32.20;26.38;;;;;;;;;;4988175;28;20030;-70
2023/08/19 01:51:17;;;;;;;31.45;26.77;;;;;;;;;;5006497;28;20133;-69
2023/08/19 01:53:43;;;;;;;31.05;25.65;;;;;;;;;;4977445;28;20053;-69
2023/08/19 01:56:11;;;;;;;30.25;25.02;;;;;;;;;;4960096;28;20041;-69
2023/08/19 01:58:37;;;;;;;29.90;24.23;;;;;;;;;;4986185;28;20041;-69
2023/08/19 02:01:04;;;;;;;31.20;24.83;;;;;;;;;;4984293;28;20034;-69
2023/08/19 02:03:30;;;;;;;28.23;24.90;;;;;;;;;;4985406;28;20518;-69
2023/08/19 02:05:56;;;;;;;29.42;25.27;;;;;;;;;;5000240;28;20065;-70
2023/08/19 02:08:22;;;;;;;26.65;23.15;;;;;;;;;;4986947;28;20124;-71
2023/08/19 02:10:49;;;;;;;29.27;23.77;;;;;;;;;;4999672;28;20395;-70
2023/08/19 02:13:15;;;;;;;29.40;23.92;;;;;;;;;;4986712;28;20041;-70
2023/08/19 02:15:42;;;;;;;26.63;23.65;;;;;;;;;;4984153;28;20088;-70
2023/08/19 02:18:08;;;;;;;29.90;24.20;;;;;;;;;;4983067;28;20034;-70
2023/08/19 02:20:34;;;;;;;30.23;24.08;;;;;;;;;;5001730;28;20562;-71
2023/08/19 02:23:01;;;;;;;27.35;23.85;;;;;;;;;;5003685;28;20038;-70
2023/08/19 02:25:27;;;;;;;29.17;23.60;;;;;;;;;;4999185;28;20040;-71
2023/08/19 02:27:54;;;;;;;33.40;25.33;;;;;;;;;;5004239;28;20100;-70
2023/08/19 02:30:20;;;;;;;32.20;24.92;;;;;;;;;;4989326;28;20038;-71
2023/08/19 02:32:47;;;;;;;27.85;24.42;;;;;;;;;;4999713;28;20543;-71
2023/08/19 02:35:16;;;;;;;29.45;24.27;;;;;;;;;;4987059;28;20038;-71
2023/08/19 02:37:42;;;;;;;30.13;25.60;;;;;;;;;;4985879;28;20475;-69
2023/08/19 02:40:09;;;;;;;29.58;25.00;;;;;;;;;;4987070;28;20053;-70
2023/08/19 02:42:38;;;;;;;30.17;24.20;;;;;;;;;;5003893;28;20037;-71
2023/08/19 02:45:06;;;;;;;31.48;25.25;;;;;;;;;;4984397;28;20040;-71
2023/08/19 02:47:32;;;;;;;30.98;25.05;;;;;;;;;;4986620;28;20370;-71
2023/08/19 02:49:58;;;;;;;29.02;24.92;;;;;;;;;;4987108;28;20092;-71
2023/08/19 02:52:24;;;;;;;28.63;24.23;;;;;;;;;;4983782;28;20031;-70
2023/08/19 02:54:51;;;;;;;31.50;26.55;;;;;;;;;;5002331;28;20026;-70
2023/08/19 02:57:17;;;;;;;29.65;25.02;;;;;;;;;;5002008;28;20484;-69
2023/08/19 02:59:43;;;;;;;29.90;24.73;;;;;;;;;;4985576;28;20030;-70
2023/08/19 03:02:09;;;;;;;32.65;24.70;;;;;;;;;;4987220;28;20037;-71
2023/08/19 03:04:35;;;;;;;30.35;24.98;;;;;;;;;;4999034;28;20069;-71
2023/08/19 03:07:01;;;;;;;31.10;25.15;;;;;;;;;;5009653;28;20026;-69
2023/08/19 03:09:28;;;;;;;31.50;25.08;;;;;;;;;;5008021;28;20033;-72
2023/08/19 03:11:54;;;;;;;36.03;26.77;;;;;;;;;;4986723;28;20487;-70
2023/08/19 03:14:20;;;;;;;32.22;25.30;;;;;;;;;;4999516;28;21392;-70
2023/08/19 03:16:46;;;;;;;30.73;25.08;;;;;;;;;;5004038;28;20129;-70
2023/08/19 03:19:14;;;;;;;30.77;25.88;;;;;;;;;;5005402;28;20118;-71
2023/08/19 03:21:41;;;;;;;32.08;25.75;;;;;;;;;;4986209;28;20128;-71
2023/08/19 03:24:07;;;;;;;31.83;25.80;;;;;;;;;;5008179;28;20034;-70
2023/08/19 03:26:33;;;;;;;31.00;25.45;;;;;;;;;;4987736;28;20026;-70
2023/08/19 03:29:00;;;;;;;29.20;25.48;;;;;;;;;;4989592;28;20046;-71
2023/08/19 03:31:27;;;;;;;30.42;25.33;;;;;;;;;;4988442;28;20033;-70
2023/08/19 03:33:54;;;;;;;32.42;25.98;;;;;;;;;;4990497;28;20032;-71
2023/08/19 03:36:20;;;;;;;31.42;25.42;;;;;;;;;;5000651;28;20033;-71
2023/08/19 03:38:47;;;;;;;31.55;26.50;;;;;;;;;;5003514;28;20100;-71
2023/08/19 03:41:13;;;;;;;32.50;25.33;;;;;;;;;;5003211;28;20088;-71
2023/08/19 03:43:39;;;;;;;29.23;24.50;;;;;;;;;;4991785;28;20026;-70
2023/08/19 03:46:05;;;;;;;36.17;26.58;;;;;;;;;;4989447;28;20034;-70
2023/08/19 03:48:32;;;;;;;29.45;25.83;;;;;;;;;;4974204;28;20495;-71
2023/08/19 03:50:58;;;;;;;32.97;24.92;;;;;;;;;;5002961;28;20042;-71
2023/08/19 03:53:25;;;;;;;29.30;25.63;;;;;;;;;;5005267;28;20109;-70
2023/08/19 03:55:51;;;;;;;33.45;25.30;;;;;;;;;;5003688;28;20022;-70
2023/08/19 03:58:17;;;;;;;33.20;26.75;;;;;;;;;;4987602;28;20069;-70
2023/08/19 04:00:44;;;;;;;31.90;26.88;;;;;;;;;;5002879;28;20057;-70
2023/08/19 04:03:11;;;;;;;31.58;26.65;;;;;;;;;;4989840;28;20030;-71
2023/08/19 04:05:38;;;;;;;29.75;26.55;;;;;;;;;;4990273;28;20069;-70
2023/08/19 04:08:05;;;;;;;33.10;27.00;;;;;;;;;;4988272;28;20076;-71
2023/08/19 04:10:31;;;;;;;30.13;26.20;;;;;;;;;;4987938;28;20066;-70
2023/08/19 04:12:58;;;;;;;32.03;26.65;;;;;;;;;;4990205;28;20463;-70
2023/08/19 04:15:24;;;;;;;34.80;27.63;;;;;;;;;;4990645;28;20025;-70
2023/08/19 04:17:50;;;;;;;35.40;26.75;;;;;;;;;;5002638;28;20034;-70
2023/08/19 04:20:16;;;;;;;34.67;28.15;;;;;;;;;;4987687;28;20046;-71
2023/08/19 04:22:44;;;;;;;35.40;26.90;;;;;;;;;;5004974;28;20033;-72
2023/08/19 04:25:10;;;;;;;33.15;26.58;;;;;;;;;;5002250;28;20438;-71
2023/08/19 04:27:37;;;;;;;33.10;26.95;;;;;;;;;;4988914;28;20038;-69
2023/08/19 04:30:05;;;;;;;32.25;25.88;;;;;;;;;;4987783;28;20397;-71
2023/08/19 04:32:33;;;;;;;29.98;26.70;;;;;;;;;;4966318;28;20025;-70
2023/08/19 04:35:00;;;;;;;38.53;27.63;;;;;;;;;;4998748;28;20030;-71
2023/08/19 04:37:27;;;;;;;35.78;26.85;;;;;;;;;;4984140;28;20076;-71
2023/08/19 04:39:53;;;;;;;31.17;26.40;;;;;;;;;;5006539;28;20080;-71
2023/08/19 04:42:24;;;;;;;31.42;25.92;;;;;;;;;;4985996;28;20076;-71
2023/08/19 04:44:50;;;;;;;31.52;26.35;;;;;;;;;;5002829;28;20516;-71
2023/08/19 04:47:17;;;;;;;29.88;26.05;;;;;;;;;;5000716;28;20113;-71
2023/08/19 04:49:43;;;;;;;29.60;25.02;;;;;;;;;;5003016;28;20029;-71
2023/08/19 04:52:09;;;;;;;31.20;25.73;;;;;;;;;;5006951;28;20037;-71
2023/08/19 04:54:37;;;;;;;38.90;26.60;;;;;;;;;;4987306;28;20030;-69
2023/08/19 04:57:03;;;;;;;32.88;25.45;;;;;;;;;;4987032;28;20129;-71
2023/08/19 04:59:30;;;;;;;36.30;26.88;;;;;;;;;;4999410;28;20056;-70
2023/08/19 05:01:57;;;;;;;32.10;26.77;;;;;;;;;;4989576;28;20029;-72
2023/08/19 05:04:24;;;;;;;30.70;26.10;;;;;;;;;;4987747;28;20050;-70
2023/08/19 05:06:52;;;;;;;33.42;25.70;;;;;;;;;;5002180;28;20107;-70
2023/08/19 05:09:18;;;;;;;30.00;24.88;;;;;;;;;;4987443;28;20036;-70
2023/08/19 05:11:44;;;;;;;35.67;24.30;;;;;;;;;;4987556;28;20124;-70
2023/08/19 05:14:12;;;;;;;29.27;25.92;;;;;;;;;;4985096;28;20027;-70
2023/08/19 05:16:38;;;;;;;33.72;25.20;;;;;;;;;;5004859;28;20388;-71
2023/08/19 05:19:20;;;;;;;31.42;24.15;;;;;;;;;;4988531;28;20041;-70
2023/08/19 05:21:51;;;;;;;32.65;26.35;;;;;;;;;;5005037;28;20506;-71
2023/08/19 05:24:18;;;;;;;29.63;26.05;;;;;;;;;;4995798;28;20026;-71
2023/08/19 05:26:44;;;;;;;31.08;26.13;;;;;;;;;;4986413;28;20030;-71
2023/08/19 05:29:11;;;;;;;30.75;25.45;;;;;;;;;;5000401;28;20088;-71
2023/08/19 05:31:38;;;;;;;28.08;23.98;;;;;;;;;;4988600;28;20035;-70
2023/08/19 05:34:05;;;;;;;30.95;25.50;;;;;;;;;;4999482;28;20069;-71
2023/08/19 05:36:31;;;;;;;33.65;24.13;;;;;;;;;;4984904;28;20538;-71
2023/08/19 05:38:57;;;;;;;29.70;24.38;;;;;;;;;;5001846;28;20050;-71
2023/08/19 05:41:23;;;;;;;33.35;23.85;;;;;;;;;;4997869;28;20038;-71
2023/08/19 05:43:49;;;;;;;28.83;22.85;;;;;;;;;;5000659;28;20033;-71
2023/08/19 05:46:16;;;;;;;32.95;22.90;;;;;;;;;;5000523;28;20078;-70
2023/08/19 05:48:42;;;;;;;29.35;23.35;;;;;;;;;;5002822;28;20066;-69
2023/08/19 05:51:08;;;;;;;27.05;21.92;;;;;;;;;;5000811;28;20038;-72
2023/08/19 05:53:35;;;;;;;29.50;23.27;;;;;;;;;;5007173;28;20037;-71
2023/08/19 05:56:01;;;;;;;30.48;24.10;;;;;;;;;;5008004;28;20041;-71
2023/08/19 05:58:28;;;;;;;33.47;25.08;;;;;;;;;;5008779;28;20072;-70
2023/08/19 06:01:02;;;;;;;34.33;24.05;;;;;;;;;;5008080;28;20026;-71
2023/08/19 06:03:29;;;;;;;31.55;24.95;;;;;;;;;;4992050;28;20038;-71
2023/08/19 06:05:55;;;;;;;29.48;24.25;;;;;;;;;;4995173;28;20053;-72
2023/08/19 06:08:21;;;;;;;34.17;25.08;;;;;;;;;;5009266;28;20042;-71
2023/08/19 06:11:00;;;;;;;34.78;24.55;;;;;;;;;;5008875;28;20125;-72
2023/08/19 06:13:26;;;;;;;30.92;23.63;;;;;;;;;;5008107;28;20048;-71
2023/08/19 06:15:52;;;;;;;31.63;24.13;;;;;;;;;;5008405;28;20065;-71
2023/08/19 06:18:18;;;;;;;30.00;24.17;;;;;;;;;;4992260;28;20034;-71
2023/08/19 06:20:44;;;;;;;32.40;22.40;;;;;;;;;;5010044;28;20112;-72
2023/08/19 06:23:11;;;;;;;26.17;22.55;;;;;;;;;;5007916;28;20038;-71
2023/08/19 06:25:37;;;;;;;31.13;23.52;;;;;;;;;;4992714;28;20034;-70
2023/08/19 06:28:03;;;;;;;28.65;23.40;;;;;;;;;;5006651;28;20391;-71
2023/08/19 06:30:29;;;;;;;27.83;22.98;;;;;;;;;;5006316;28;20034;-71
2023/08/19 06:32:55;;;;;;;31.65;23.55;;;;;;;;;;5005494;28;20512;-71
2023/08/19 06:35:21;;;;;;;28.83;23.10;;;;;;;;;;5008630;28;20052;-71
2023/08/19 06:37:56;;;;;;;28.27;23.10;;;;;;;;;;5005759;28;20038;-71
2023/08/19 06:40:25;;;;;;;27.65;23.10;;;;;;;;;;5002243;28;20042;-71
2023/08/19 06:42:52;;;;;;;26.38;21.98;;;;;;;;;;5007740;28;20029;-71
2023/08/19 06:45:19;;;;;;;28.30;22.52;;;;;;;;;;4986865;28;20163;-70
2023/08/19 06:47:45;;;;;;;30.85;21.92;;;;;;;;;;5009721;28;20049;-71
2023/08/19 06:50:13;;;;;;;30.02;22.88;;;;;;;;;;5011099;28;20529;-76
2023/08/19 06:52:39;;;;;;;27.65;20.30;;;;;;;;;;5004338;28;20415;-70
2023/08/19 06:55:06;;;;;;;27.30;19.63;;;;;;;;;;5009389;28;20125;-70
2023/08/19 06:57:36;;;;;;;25.85;19.55;;;;;;;;;;5011795;28;20289;-70
2023/08/19 07:00:11;;;;;;;28.40;19.77;;;;;;;;;;4997582;28;20022;-71
2023/08/19 07:02:38;;;;;;;23.77;19.02;;;;;;;;;;4994411;28;20446;-71
2023/08/19 07:05:15;;;;;;;22.80;19.10;;;;;;;;;;5013207;28;20034;-70
2023/08/19 07:07:46;;;;;;;24.13;19.00;;;;;;;;;;5011994;28;20030;-70
2023/08/19 07:10:14;;;;;;;23.60;18.88;;;;;;;;;;4995237;28;20030;-70
2023/08/19 07:12:40;;;;;;;27.52;18.50;;;;;;;;;;5010042;28;20034;-70
2023/08/19 07:15:11;;;;;;;29.50;19.27;;;;;;;;;;5000216;28;20050;-70
2023/08/19 07:17:39;;;;;;;25.52;19.00;;;;;;;;;;5004628;28;20391;-69
2023/08/19 07:20:06;;;;;;;26.92;18.65;;;;;;;;;;4995816;28;20026;-70
2023/08/19 07:22:34;;;;;;;22.45;17.83;;;;;;;;;;4992666;28;20396;-71
2023/08/19 07:25:00;;;;;;;23.95;17.30;;;;;;;;;;5011525;28;20058;-71
2023/08/19 07:27:27;;;;;;;22.95;17.55;;;;;;;;;;5011123;28;20025;-70
2023/08/19 07:29:54;;;;;;;22.88;15.60;;;;;;;;;;5011829;28;20112;-70
2023/08/19 07:32:20;;;;;;;23.17;15.88;;;;;;;;;;5011250;28;20049;-71
2023/08/19 07:34:47;;;;;;;23.15;16.45;;;;;;;;;;5011906;28;20084;-69
2023/08/19 07:37:13;;;;;;;21.15;16.63;;;;;;;;;;5011665;28;20479;-72
2023/08/19 07:39:39;;;;;;;23.15;15.98;;;;;;;;;;5013193;28;20057;-70
2023/08/19 07:42:05;;;;;;;18.55;14.75;;;;;;;;;;5011715;28;20033;-70
2023/08/19 07:44:32;;;;;;;20.63;15.48;;;;;;;;;;5012374;28;20094;-71
2023/08/19 07:46:58;;;;;;;21.95;15.43;;;;;;;;;;5011089;28;20038;-70
2023/08/19 07:49:24;;;;;;;20.00;15.57;;;;;;;;;;5012349;28;20030;-69
2023/08/19 07:51:50;;;;;;;21.38;14.45;;;;;;;;;;5006503;28;20030;-70
2023/08/19 07:54:17;;;;;;;19.08;15.20;;;;;;;;;;4994517;28;20116;-70
2023/08/19 07:56:43;;;;;;;20.15;14.93;;;;;;;;;;5012958;28;20498;-79
2023/08/19 07:59:10;;;;;;;23.92;14.65;;;;;;;;;;4995079;28;20360;-78
2023/08/19 08:01:36;;;;;;;21.17;14.80;;;;;;;;;;5009561;28;20029;-77
2023/08/19 08:04:03;;;;;;;18.50;14.48;;;;;;;;;;4994460;28;20030;-76
2023/08/19 08:06:29;;;;;;;19.35;14.95;;;;;;;;;;5012438;28;20053;-76
2023/08/19 08:08:55;;;;;;;24.08;14.43;;;;;;;;;;5012458;28;20034;-77
2023/08/19 08:11:21;;;;;;;17.92;15.20;;;;;;;;;;5011744;28;20078;-76
2023/08/19 08:13:47;;;;;;;21.05;14.05;;;;;;;;;;4995037;28;20026;-74
2023/08/19 08:16:13;;;;;;;22.73;14.38;;;;;;;;;;5015285;28;20455;-78
2023/08/19 08:18:39;;;;;;;21.20;13.63;;;;;;;;;;5020986;28;20042;-76
2023/08/19 08:21:09;;;;;;;19.92;14.35;;;;;;;;;;5012881;28;20061;-76
2023/08/19 08:23:35;;;;;;;21.77;14.38;;;;;;;;;;5010458;28;20392;-77
2023/08/19 08:26:01;;;;;;;26.30;15.27;;;;;;;;;;4995342;28;20110;-75
2023/08/19 08:28:27;;;;;;;24.65;15.10;;;;;;;;;;4989928;28;20036;-75
2023/08/19 08:30:53;;;;;;;21.00;14.48;;;;;;;;;;4989500;28;20056;-78
2023/08/19 08:33:20;;;;;;;20.48;16.05;;;;;;;;;;5007897;28;20099;-77
2023/08/19 08:35:46;;;;;;;26.75;16.13;;;;;;;;;;5010550;28;20137;-77
2023/08/19 08:38:12;;;;;;;22.48;16.83;;;;;;;;;;5008404;28;20066;-76
2023/08/19 08:40:38;;;;;;;24.35;15.60;;;;;;;;;;5008510;28;20080;-74
2023/08/19 08:43:06;;;;;;;21.55;15.43;;;;;;;;;;5005701;28;20124;-74
2023/08/19 08:45:33;;;;;;;22.85;16.10;;;;;;;;;;5009927;28;20344;-76
2023/08/19 08:48:02;;;;;;;21.08;16.48;;;;;;;;;;5010262;28;20030;-75
2023/08/19 08:50:29;;;;;;;18.35;16.30;;;;;;;;;;4995185;28;20048;-74
2023/08/19 08:52:56;;;;;;;23.08;17.20;;;;;;;;;;5013042;28;20046;-75
2023/08/19 08:55:22;;;;;;;25.63;18.00;;;;;;;;;;5015770;28;20083;-76
2023/08/19 08:57:48;;;;;;;23.50;17.63;;;;;;;;;;5011926;28;20069;-82
2023/08/19 09:00:16;;;;;;;22.08;16.35;;;;;;;;;;4992660;28;20187;-78
2023/08/19 09:02:44;;;;;;;23.58;18.08;;;;;;;;;;4998517;28;20073;-80
2023/08/19 09:05:10;;;;;;;24.83;18.08;;;;;;;;;;4991800;28;20100;-78
2023/08/19 09:07:40;;;;;;;23.52;18.35;;;;;;;;;;4978192;28;20065;-75
2023/08/19 09:10:11;;;;;;;23.90;16.25;;;;;;;;;;4990233;28;20100;-75
2023/08/19 09:12:38;;;;;;;19.50;16.55;;;;;;;;;;5002942;28;20030;-76
2023/08/19 09:15:05;;;;;;;27.00;16.88;;;;;;;;;;4994784;28;20041;-76
2023/08/19 09:17:33;;;;;;;19.77;17.23;;;;;;;;;;4986117;28;20391;-77
2023/08/19 09:20:00;;;;;;;24.98;17.67;;;;;;;;;;5000044;28;20057;-76
2023/08/19 09:22:26;;;;;;;23.10;18.50;;;;;;;;;;5001504;28;20029;-76
2023/08/19 09:24:56;;;;;;;24.60;17.85;;;;;;;;;;5010619;28;20221;-75
2023/08/19 09:27:28;;;;;;;21.77;15.65;;;;;;;;;;5016481;28;20111;-75
2023/08/19 09:29:54;;;;;;;21.95;16.08;;;;;;;;;;5019915;28;20065;-76
2023/08/19 09:32:41;;;;;;;23.17;17.25;;;;;;;;;;4998537;28;20034;-76
2023/08/19 09:35:09;;;;;;;22.65;17.65;;;;;;;;;;5001759;28;21257;-77
2023/08/19 09:37:36;;;;;;;22.95;17.65;;;;;;;;;;5009389;28;20092;-78
2023/08/19 09:40:18;;;;;;;27.17;18.45;;;;;;;;;;4996617;28;20038;-77
2023/08/19 09:42:48;;;;;;;24.27;17.95;;;;;;;;;;5007871;28;20022;-78
2023/08/19 09:45:18;;;;;;;28.25;19.38;;;;;;;;;;5011443;28;20052;-77
2023/08/19 09:47:48;;;;;;;24.05;17.17;;;;;;;;;;5011516;28;20052;-77
2023/08/19 09:50:15;;;;;;;24.17;16.02;;;;;;;;;;5009205;28;20084;-77
2023/08/19 09:52:41;;;;;;;21.92;14.90;;;;;;;;;;5009410;28;20102;-78
2023/08/19 09:55:08;;;;;;;18.73;13.50;;;;;;;;;;4987221;28;20099;-78
2023/08/19 09:57:34;;;;;;;17.73;12.35;;;;;;;;;;4993631;28;20038;-78
2023/08/19 10:00:01;;;;;;;14.88;12.07;;;;;;;;;;5009769;28;20038;-77
2023/08/19 10:02:34;;;;;;;17.95;10.95;;;;;;;;;;5018392;28;20034;-77
2023/08/19 10:05:00;;;;;;;11.35;8.55;;;;;;;;;;5027912;28;20034;-78
2023/08/19 10:07:30;;;;;;;13.27;8.20;;;;;;;;;;5003579;28;20026;-76
2023/08/19 10:09:57;;;;;;;14.65;9.40;;;;;;;;;;5011676;28;20113;-78
2023/08/19 10:12:24;;;;;;;10.20;7.53;;;;;;;;;;5010220;28;20038;-78
2023/08/19 10:14:53;;;;;;;10.88;7.55;;;;;;;;;;5010020;28;20367;-78
2023/08/19 10:17:20;;;;;;;10.38;7.75;;;;;;;;;;5010814;28;20041;-78
2023/08/19 10:19:48;;;;;;;8.07;6.60;;;;;;;;;;5007068;28;20070;-77
2023/08/19 10:22:16;;;;;;;9.38;6.38;;;;;;;;;;4979011;28;20027;-77
2023/08/19 10:24:43;;;;;;;10.07;6.10;;;;;;;;;;4991559;28;20128;-78
2023/08/19 10:27:16;;;;;;;11.20;6.63;;;;;;;;;;4973686;28;20118;-78
2023/08/19 10:29:45;;;;;;;9.88;6.50;;;;;;;;;;4990608;28;20065;-79
2023/08/19 10:32:31;;;;;;;11.00;6.97;;;;;;;;;;5009242;28;20432;-78
2023/08/19 10:35:04;;;;;;;11.15;7.15;;;;;;;;;;5009982;28;20443;-78
2023/08/19 10:37:30;;;;;;;8.73;6.55;;;;;;;;;;5016214;28;20034;-78
2023/08/19 10:40:08;;;;;;;10.32;6.72;;;;;;;;;;5007674;28;20050;-78
2023/08/19 10:42:35;;;;;;;11.70;7.35;;;;;;;;;;4991468;28;20387;-77
2023/08/19 10:45:02;;;;;;;11.27;7.97;;;;;;;;;;5014689;28;20096;-77
2023/08/19 10:47:28;;;;;;;12.63;7.95;;;;;;;;;;5010908;28;20030;-78
2023/08/19 10:50:07;;;;;;;13.25;7.82;;;;;;;;;;4992037;28;20030;-78
2023/08/19 10:52:33;;;;;;;14.75;7.22;;;;;;;;;;5009685;28;20442;-78
2023/08/19 10:55:04;;;;;;;11.88;7.05;;;;;;;;;;5010694;28;20102;-79
2023/08/19 10:57:30;;;;;;;10.68;7.47;;;;;;;;;;5009303;28;20038;-78
2023/08/19 10:59:58;;;;;;;13.45;6.78;;;;;;;;;;4992378;28;20145;-79
2023/08/19 11:02:25;;;;;;;10.63;7.55;;;;;;;;;;5009306;28;20176;-77
2023/08/19 11:04:52;;;;;;;11.52;7.90;;;;;;;;;;5008061;28;20104;-77
2023/08/19 11:07:19;;;;;;;15.45;7.95;;;;;;;;;;5010117;28;20113;-78
2023/08/19 11:09:46;;;;;;;15.75;8.30;;;;;;;;;;4993173;28;20053;-78
2023/08/19 11:12:15;;;;;;;12.00;8.40;;;;;;;;;;4995787;28;20149;-79
2023/08/19 11:14:45;;;;;;;15.45;9.32;;;;;;;;;;5019810;28;20036;-79
2023/08/19 11:17:11;;;;;;;15.07;9.73;;;;;;;;;;5028035;28;20045;-77
2023/08/19 11:19:37;;;;;;;15.70;10.30;;;;;;;;;;5018234;28;20038;-78
2023/08/19 11:22:03;;;;;;;15.63;9.85;;;;;;;;;;5010266;28;20068;-77
2023/08/19 11:24:30;;;;;;;18.75;10.77;;;;;;;;;;5009125;28;20030;-77
2023/08/19 11:26:57;;;;;;;17.25;10.90;;;;;;;;;;5012330;28;20092;-77
2023/08/19 11:29:23;;;;;;;15.30;10.32;;;;;;;;;;5012555;28;20038;-76
2023/08/19 11:31:49;;;;;;;15.60;10.32;;;;;;;;;;5013210;28;20041;-77
2023/08/19 11:34:15;;;;;;;15.60;10.65;;;;;;;;;;4994572;28;20056;-77
2023/08/19 11:36:43;;;;;;;15.07;11.10;;;;;;;;;;5012955;28;20091;-78
2023/08/19 11:39:10;;;;;;;13.05;9.23;;;;;;;;;;5013349;28;20085;-78
2023/08/19 11:41:36;;;;;;;12.65;8.45;;;;;;;;;;5013201;28;20037;-78
2023/08/19 11:44:03;;;;;;;14.23;8.57;;;;;;;;;;5012339;28;20088;-77
2023/08/19 11:46:30;;;;;;;14.45;9.45;;;;;;;;;;4995688;28;20030;-78
2023/08/19 11:48:57;;;;;;;17.35;11.25;;;;;;;;;;5000378;28;20206;-80
2023/08/19 11:51:24;;;;;;;15.27;10.20;;;;;;;;;;5026494;28;20081;-77
2023/08/19 11:53:52;;;;;;;15.45;11.27;;;;;;;;;;5027911;28;20054;-78
2023/08/19 11:56:18;;;;;;;16.73;11.77;;;;;;;;;;4998224;28;20034;-79
2023/08/19 11:58:51;;;;;;;15.48;11.32;;;;;;;;;;4994546;28;20068;-77
2023/08/19 12:01:18;;;;;;;19.15;10.73;;;;;;;;;;4976657;28;20110;-78
2023/08/19 12:03:46;;;;;;;15.38;10.52;;;;;;;;;;4993617;28;20046;-78
2023/08/19 12:06:13;;;;;;;16.25;9.52;;;;;;;;;;5009576;28;20045;-78
2023/08/19 12:08:40;;;;;;;13.73;10.05;;;;;;;;;;4995736;28;20475;-79
2023/08/19 12:11:06;;;;;;;14.20;8.45;;;;;;;;;;5012477;28;20030;-78
2023/08/19 12:13:33;;;;;;;13.68;9.20;;;;;;;;;;5011725;28;20076;-77
2023/08/19 12:15:59;;;;;;;17.20;8.65;;;;;;;;;;5010356;28;20050;-77
2023/08/19 12:18:25;;;;;;;12.10;7.88;;;;;;;;;;4994979;28;20081;-78
2023/08/19 12:20:52;;;;;;;14.82;8.25;;;;;;;;;;5012486;28;20085;-76
2023/08/19 12:23:19;;;;;;;11.18;6.45;;;;;;;;;;5014618;28;20040;-78
2023/08/19 12:25:52;;;;;;;14.25;5.78;;;;;;;;;;5004085;28;20030;-75
2023/08/19 12:28:18;;;;;;;11.38;5.35;;;;;;;;;;5029415;28;20054;-78
2023/08/19 12:30:45;;;;;;;12.90;4.57;;;;;;;;;;5016463;28;20033;-78
2023/08/19 12:33:13;;;;;;;7.60;4.13;;;;;;;;;;4993707;28;20407;-78
2023/08/19 12:35:39;;;;;;;8.77;3.88;;;;;;;;;;4985394;28;20197;-77
2023/08/19 12:38:05;;;;;;;11.15;4.32;;;;;;;;;;5010030;28;20038;-78
2023/08/19 12:40:32;;;;;;;10.93;4.00;;;;;;;;;;5010256;28;20526;-79
2023/08/19 12:42:58;;;;;;;11.70;3.90;;;;;;;;;;5009585;28;20034;-78
2023/08/19 12:45:24;;;;;;;13.13;3.92;;;;;;;;;;5013874;28;20041;-74
2023/08/19 12:47:50;;;;;;;11.63;3.60;;;;;;;;;;5011551;28;20069;-77
2023/08/19 12:50:18;;;;;;;8.90;3.55;;;;;;;;;;4994091;28;20026;-76
2023/08/19 12:52:45;;;;;;;10.65;3.88;;;;;;;;;;4993040;28;20045;-76
2023/08/19 12:55:15;;;;;;;11.73;3.33;;;;;;;;;;5008126;28;20038;-77
2023/08/19 12:57:44;;;;;;;7.40;2.47;;;;;;;;;;5010708;28;20477;-77
2023/08/19 13:00:12;;;;;;;10.23;2.33;;;;;;;;;;5004161;28;20494;-77
2023/08/19 13:02:38;;;;;;;9.23;2.80;;;;;;;;;;5011569;28;20085;-76
2023/08/19 13:05:06;;;;;;;9.80;2.40;;;;;;;;;;5020346;28;20021;-77
2023/08/19 13:07:53;;;;;;;7.93;2.60;;;;;;;;;;5016828;28;20076;-76
2023/08/19 13:10:19;;;;;;;11.48;2.42;;;;;;;;;;5008849;28;20053;-78
2023/08/19 13:12:47;;;;;;;12.40;2.75;;;;;;;;;;5008401;28;20030;-77
2023/08/19 13:15:15;;;;;;;11.77;2.80;;;;;;;;;;5006492;28;20402;-77
2023/08/19 13:17:41;;;;;;;16.88;3.38;;;;;;;;;;4987007;28;20066;-78
2023/08/19 13:20:08;;;;;;;14.65;3.25;;;;;;;;;;4987054;28;20099;-76
2023/08/19 13:22:34;;;;;;;14.63;2.95;;;;;;;;;;5005385;28;20172;-76
2023/08/19 13:25:00;;;;;;;13.23;3.17;;;;;;;;;;5007354;28;20117;-76
2023/08/19 13:27:27;;;;;;;12.15;2.63;;;;;;;;;;5008402;28;20056;-75
2023/08/19 13:29:53;;;;;;;10.27;2.58;;;;;;;;;;5003454;28;20026;-76
2023/08/19 13:32:19;;;;;;;10.05;2.50;;;;;;;;;;4985218;28;20547;-75
2023/08/19 13:34:45;;;;;;;11.80;3.15;;;;;;;;;;5005989;28;20037;-75
2023/08/19 13:37:11;;;;;;;10.65;3.15;;;;;;;;;;4994265;28;20121;-77
2023/08/19 13:39:38;;;;;;;9.75;2.85;;;;;;;;;;4989358;28;20540;-75
2023/08/19 13:42:04;;;;;;;11.45;2.70;;;;;;;;;;5011746;28;20042;-76
2023/08/19 13:44:31;;;;;;;10.70;2.97;;;;;;;;;;5004467;28;20034;-77
2023/08/19 13:46:58;;;;;;;11.77;2.90;;;;;;;;;;4987339;28;20061;-76
2023/08/19 13:49:24;;;;;;;15.88;3.40;;;;;;;;;;5002806;28;20632;-77
2023/08/19 13:51:50;;;;;;;13.55;2.47;;;;;;;;;;5005627;28;20059;-76
2023/08/19 13:54:17;;;;;;;9.05;2.55;;;;;;;;;;5009789;28;20033;-77
2023/08/19 13:56:44;;;;;;;15.48;2.67;;;;;;;;;;5007073;28;20091;-75
2023/08/19 13:59:11;;;;;;;12.00;2.70;;;;;;;;;;4990547;28;20540;-77
2023/08/19 14:01:56;;;;;;;11.75;2.50;;;;;;;;;;5006175;28;20080;-75
2023/08/19 14:04:22;;;;;;;12.13;3.00;;;;;;;;;;5010251;28;20022;-77
2023/08/19 14:06:48;;;;;;;12.48;2.70;;;;;;;;;;5000967;28;20033;-76
2023/08/19 14:09:14;;;;;;;13.75;2.55;;;;;;;;;;4986489;28;20396;-76
2023/08/19 14:11:41;;;;;;;15.60;3.45;;;;;;;;;;5010829;28;20045;-75
2023/08/19 14:14:07;;;;;;;17.40;3.45;;;;;;;;;;5014880;28;20046;-76
2023/08/19 14:16:33;;;;;;;16.30;3.80;;;;;;;;;;5007896;28;20109;-77
2023/08/19 14:19:02;;;;;;;17.65;3.65;;;;;;;;;;5008171;28;20041;-76
2023/08/19 14:21:28;;;;;;;17.92;3.75;;;;;;;;;;5007643;28;20034;-76
2023/08/19 14:23:54;;;;;;;17.13;3.63;;;;;;;;;;4990496;28;20042;-75